Aérodrome :
LOGIN :

S'inscrire | Disclaimer

   EN    FR    IT 

 










Légende :    VFR   VFR Marginal   IFR   IFR Intensif   IFR Très Intensif
Visi : 
Plafond : 
>= 8 km
>= 3000ft
5 à 8 km
1000 à 3000 ft
1500m à 5 km
500 à 1000 ft
800 à 1500m
200 à 500 ft
< 800m
< 200 ft
Symboles :   Orages  Brouillard  Fortes neiges  Fortes précipitations  Vent > 20 kt
SIGMETs :   Divers  Orages  Givrage  Turbulence  Onde Orograph.  Cendres Volcan.






- Altitude de l'aérodrome : 443 ft
- Code IATA : GNA


UMMG - Grodno

DERNIER METAR :
  • 221300Z 31010G14MPS 9999 BKN026 BKN066 05/M01 Q1013 R35/290060 NOSIG

METARs EXPIRÉS :
  • 221200Z 31011G15MPS 9999 BKN021 BKN066 05/00 Q1013 R35/290060 NOSIG
  • 221100Z 30010G14MPS 9999 BKN016CB BKN066 05/02 Q1013 R35/290060 NOSIG

TAF TAF UMMG
Valide du 22 à 12h jusqu'au 22 à 21h UTC


221107Z 2212/2221 30009G14MPS 9999 BKN010 BKN015CB
TEMPO 2212/2218 32012G17MPS 3000 -SHRASN BKN007



MET'MAP, la Météo Aéronautique d'un coup d'oeil ! - Copyright ORBIFLY Décembre 2007 - Disclaimer

ORBIFLY MET'MAP TEAM :

Programmation & Développement : Alexandra Zaïnal
Sur une idée originale de : Baudouin d'Aumeries
Assistance à la programmation : Marc-Olivier Méhu
Soutien technique & logistique : Manuel Goepfert

Contact : metmap@orbifly.com




SOURCES & CREDITS :

   NOAA